createdAt,value
2023-03-28T00:05:21.942Z,11.60
2023-03-28T00:13:30.135Z,11.60
2023-03-28T00:21:37.168Z,11.40
2023-03-28T00:29:45.779Z,11.20
2023-03-28T00:37:51.843Z,11.60
2023-03-28T00:46:09.097Z,11.40
2023-03-28T00:54:18.953Z,11.30
2023-03-28T01:02:27.393Z,10.70
2023-03-28T01:10:34.718Z,10.60
2023-03-28T01:18:47.266Z,10.50
2023-03-28T01:26:56.598Z,10.50
2023-03-28T01:35:37.824Z,10.20
2023-03-28T01:43:54.117Z,10.20
2023-03-28T01:52:08.200Z,10.20
2023-03-28T02:00:20.295Z,10.10
2023-03-28T02:08:46.961Z,9.70
2023-03-28T02:17:16.834Z,9.70
2023-03-28T02:25:45.142Z,9.70
2023-03-28T02:34:19.363Z,9.40
2023-03-28T02:42:59.770Z,9.50
2023-03-28T02:51:19.783Z,9.30
2023-03-28T02:59:31.708Z,9.40
2023-03-28T03:07:40.194Z,9.50
2023-03-28T03:15:46.525Z,9.70
2023-03-28T03:24:14.597Z,9.50
2023-03-28T03:32:22.192Z,9.10
2023-03-28T03:40:41.299Z,8.70
2023-03-28T03:48:49.480Z,8.60
2023-03-28T03:56:58.990Z,8.60
2023-03-28T04:05:05.054Z,8.40
2023-03-28T04:13:31.078Z,8.60
2023-03-28T04:21:41.873Z,8.80
2023-03-28T04:29:50.021Z,8.80
2023-03-28T04:38:20.732Z,8.90
2023-03-28T04:46:37.108Z,8.90
2023-03-28T04:54:48.862Z,9.10
2023-03-28T05:03:04.954Z,9.40
2023-03-28T05:11:22.927Z,9.30
2023-03-28T05:19:31.410Z,9.20
2023-03-28T05:27:57.981Z,8.90
2023-03-28T05:36:07.597Z,9.00
2023-03-28T05:44:13.161Z,9.30
2023-03-28T05:52:50.755Z,9.40
2023-03-28T06:00:56.802Z,9.40
2023-03-28T06:09:06.989Z,9.50
2023-03-28T06:17:24.805Z,9.50
2023-03-28T06:25:37.200Z,9.40
2023-03-28T06:33:43.422Z,9.40
2023-03-28T06:41:51.743Z,9.30
2023-03-28T06:50:06.601Z,9.30
2023-03-28T06:58:14.911Z,9.10
2023-03-28T07:06:28.490Z,9.00
2023-03-28T07:14:36.718Z,9.00
2023-03-28T07:22:42.243Z,9.10
2023-03-28T07:30:50.447Z,8.90
2023-03-28T07:38:56.144Z,8.70
2023-03-28T07:47:04.902Z,8.60
2023-03-28T07:55:11.278Z,8.80
2023-03-28T08:03:23.985Z,8.80
2023-03-28T08:11:30.528Z,8.90
2023-03-28T08:19:38.732Z,8.50
2023-03-28T08:27:49.936Z,8.70
2023-03-28T08:36:00.034Z,8.80
2023-03-28T08:44:22.994Z,9.00
2023-03-28T08:52:32.109Z,9.20
2023-03-28T09:00:40.320Z,9.10
2023-03-28T09:09:04.682Z,9.00
2023-03-28T09:17:23.089Z,9.40
2023-03-28T09:25:40.366Z,9.60
2023-03-28T09:33:51.489Z,9.80
2023-03-28T09:42:16.561Z,10.20
2023-03-28T09:50:24.860Z,10.60
2023-03-28T09:58:58.176Z,10.90
2023-03-28T10:07:56.094Z,11.00
2023-03-28T10:16:20.189Z,11.30
2023-03-28T10:24:43.537Z,13.70
2023-03-28T10:33:09.856Z,15.10
2023-03-28T10:41:36.490Z,15.40
2023-03-28T10:49:47.368Z,15.20
2023-03-28T10:58:05.839Z,19.80
2023-03-28T11:06:25.013Z,27.00
2023-03-28T11:14:44.706Z,35.50
2023-03-28T11:23:06.638Z,41.10
2023-03-28T11:31:36.976Z,43.60
2023-03-28T11:39:49.564Z,46.50
2023-03-28T11:48:07.016Z,48.40
2023-03-28T11:56:28.635Z,49.50
2023-03-28T12:05:05.980Z,50.80
2023-03-28T12:13:17.921Z,48.30
2023-03-28T12:21:43.840Z,48.80
2023-03-28T12:30:00.573Z,44.70
2023-03-28T12:38:23.296Z,30.50
2023-03-28T12:46:46.452Z,21.20
2023-03-28T12:55:02.270Z,17.40
2023-03-28T13:03:36.595Z,15.60
2023-03-28T13:11:54.093Z,14.70
2023-03-28T13:20:10.903Z,14.60
2023-03-28T13:28:36.775Z,14.20
2023-03-28T13:36:54.088Z,13.80
2023-03-28T13:45:06.888Z,13.80
2023-03-28T13:53:12.399Z,13.60
2023-03-28T14:01:24.730Z,13.70
2023-03-28T14:09:30.452Z,13.90
2023-03-28T14:17:39.433Z,13.40
2023-03-28T14:25:45.014Z,13.50
2023-03-28T14:33:53.596Z,13.00
2023-03-28T14:42:01.093Z,12.70
2023-03-28T14:50:46.103Z,12.30
2023-03-28T14:59:32.697Z,12.00
2023-03-28T15:07:45.570Z,12.10
2023-03-28T15:15:54.766Z,12.10
2023-03-28T15:24:04.343Z,12.00
2023-03-28T15:32:16.053Z,11.70
2023-03-28T15:40:32.678Z,11.80
2023-03-28T15:48:39.302Z,11.30
2023-03-28T15:56:49.877Z,11.10
2023-03-28T16:05:04.316Z,11.00
2023-03-28T16:13:15.181Z,10.80
2023-03-28T16:21:35.916Z,10.70
2023-03-28T16:29:46.654Z,10.60
2023-03-28T16:37:52.248Z,10.80
2023-03-28T16:46:01.547Z,10.70
2023-03-28T16:54:08.982Z,10.70
2023-03-28T17:02:17.980Z,10.90
2023-03-28T17:10:23.470Z,11.10
2023-03-28T17:18:36.063Z,11.20
2023-03-28T17:26:41.573Z,10.90
2023-03-28T17:34:52.316Z,11.00
2023-03-28T17:42:57.885Z,10.90
2023-03-28T17:51:06.052Z,11.10
2023-03-28T17:59:13.817Z,11.30
2023-03-28T18:07:22.207Z,11.10
2023-03-28T18:15:31.698Z,10.80
2023-03-28T18:23:44.601Z,10.50
2023-03-28T18:31:53.186Z,10.30
2023-03-28T18:40:07.265Z,10.00
2023-03-28T18:48:21.766Z,10.20
2023-03-28T18:56:31.816Z,10.10
2023-03-28T19:04:44.181Z,9.80
2023-03-28T19:12:54.202Z,9.40
2023-03-28T19:21:04.094Z,8.70
2023-03-28T19:29:12.381Z,8.20
2023-03-28T19:37:17.883Z,8.10
2023-03-28T19:45:39.143Z,8.20
2023-03-28T19:53:44.968Z,8.30
2023-03-28T20:01:53.287Z,8.30
2023-03-28T20:09:59.084Z,8.40
2023-03-28T20:18:14.650Z,8.50
2023-03-28T20:26:22.343Z,8.40
2023-03-28T20:34:30.832Z,8.00
2023-03-28T20:42:39.831Z,8.20
2023-03-28T20:50:50.443Z,8.00
2023-03-28T20:59:08.600Z,7.80
2023-03-28T21:07:16.857Z,7.80
2023-03-28T21:15:22.429Z,7.80
2023-03-28T21:23:30.952Z,8.30
2023-03-28T21:31:55.531Z,8.30
2023-03-28T21:40:06.779Z,8.40
2023-03-28T21:48:12.261Z,8.40
2023-03-28T21:56:20.301Z,8.00
2023-03-28T22:04:28.156Z,8.60
2023-03-28T22:12:36.263Z,8.40
2023-03-28T22:20:44.020Z,8.10
2023-03-28T22:28:52.299Z,8.10
2023-03-28T22:36:57.969Z,7.80
2023-03-28T22:45:06.734Z,7.60
2023-03-28T22:53:12.580Z,7.80
2023-03-28T23:01:23.287Z,7.70
2023-03-28T23:09:30.125Z,7.50
2023-03-28T23:17:38.447Z,7.10
2023-03-28T23:25:45.857Z,7.00
2023-03-28T23:33:53.951Z,6.80
2023-03-28T23:41:59.634Z,7.10
2023-03-28T23:50:09.090Z,7.00
2023-03-28T23:58:14.618Z,7.20
